createdAt,value
2023-02-24T00:02:04.944Z,92.19
2023-02-24T00:04:38.524Z,92.26
2023-02-24T00:07:07.760Z,92.18
2023-02-24T00:09:37.296Z,92.34
2023-02-24T00:12:09.183Z,92.40
2023-02-24T00:14:41.234Z,92.24
2023-02-24T00:17:14.644Z,92.62
2023-02-24T00:19:46.389Z,92.94
2023-02-24T00:22:14.970Z,93.09
2023-02-24T00:24:43.352Z,92.96
2023-02-24T00:27:12.416Z,93.05
2023-02-24T00:29:42.274Z,93.08
2023-02-24T00:32:13.484Z,92.80
2023-02-24T00:34:44.283Z,92.59
2023-02-24T00:37:15.484Z,92.88
2023-02-24T00:39:46.675Z,92.84
2023-02-24T00:42:15.061Z,92.69
2023-02-24T00:44:46.715Z,92.64
2023-02-24T00:47:18.587Z,92.44
2023-02-24T00:49:50.058Z,92.37
2023-02-24T00:52:21.150Z,91.84
2023-02-24T00:54:51.193Z,91.30
2023-02-24T00:57:21.427Z,91.24
2023-02-24T00:59:52.817Z,91.30
2023-02-24T01:02:21.444Z,91.46
2023-02-24T01:04:51.697Z,91.28
2023-02-24T01:07:20.099Z,90.79
2023-02-24T01:09:52.290Z,90.63
2023-02-24T01:12:38.097Z,90.86
2023-02-24T01:15:10.093Z,90.21
2023-02-24T01:17:40.919Z,89.97
2023-02-24T01:20:18.013Z,90.67
2023-02-24T01:22:49.528Z,90.14
2023-02-24T01:25:20.119Z,89.94
2023-02-24T01:27:48.880Z,90.31
2023-02-24T01:30:18.715Z,90.37
2023-02-24T01:32:48.429Z,90.23
2023-02-24T01:35:18.842Z,89.92
2023-02-24T01:37:47.213Z,90.32
2023-02-24T01:40:21.173Z,89.82
2023-02-24T01:42:50.851Z,90.06
2023-02-24T01:45:28.828Z,90.20
2023-02-24T01:48:02.367Z,89.77
2023-02-24T01:50:33.911Z,89.05
2023-02-24T01:53:06.507Z,88.65
2023-02-24T01:55:37.785Z,88.96
2023-02-24T01:58:14.069Z,88.52
2023-02-24T02:00:47.106Z,88.68
2023-02-24T02:03:25.331Z,88.35
2023-02-24T02:06:01.306Z,88.54
2023-02-24T02:08:30.734Z,88.38
2023-02-24T02:11:06.053Z,88.01
2023-02-24T02:13:38.104Z,88.17
2023-02-24T02:16:37.401Z,88.07
2023-02-24T02:19:55.492Z,87.03
2023-02-24T02:22:54.927Z,87.07
2023-02-24T02:25:35.164Z,87.31
2023-02-24T02:28:31.860Z,87.34
2023-02-24T02:31:58.539Z,86.99
2023-02-24T02:34:46.794Z,87.49
2023-02-24T02:37:25.450Z,87.50
2023-02-24T02:40:02.533Z,86.53
2023-02-24T02:42:41.098Z,86.73
2023-02-24T02:45:17.759Z,86.87
2023-02-24T02:47:53.996Z,86.98
2023-02-24T02:50:28.966Z,87.16
2023-02-24T02:53:01.120Z,86.63
2023-02-24T02:55:37.484Z,87.34
2023-02-24T02:58:10.655Z,86.87
2023-02-24T03:00:50.170Z,87.31
2023-02-24T03:03:20.667Z,86.41
2023-02-24T03:05:56.950Z,86.56
2023-02-24T03:08:30.752Z,86.93
2023-02-24T03:11:02.747Z,86.75
2023-02-24T03:13:37.847Z,86.91
2023-02-24T03:16:08.232Z,87.28
2023-02-24T03:18:42.059Z,87.26
2023-02-24T03:21:17.650Z,86.58
2023-02-24T03:23:50.691Z,86.17
2023-02-24T03:26:28.217Z,87.51
2023-02-24T03:29:06.637Z,88.17
2023-02-24T03:31:43.783Z,88.08
2023-02-24T03:34:17.241Z,88.08
2023-02-24T03:36:48.137Z,88.19
2023-02-24T03:39:18.007Z,88.56
2023-02-24T03:42:02.707Z,89.06
2023-02-24T03:44:33.867Z,89.56
2023-02-24T03:47:02.996Z,88.83
2023-02-24T03:49:32.370Z,88.93
2023-02-24T03:52:13.946Z,89.03
2023-02-24T03:55:03.159Z,89.36
2023-02-24T03:57:54.937Z,90.07
2023-02-24T04:00:38.599Z,90.34
2023-02-24T04:03:19.309Z,89.82
2023-02-24T04:06:02.520Z,89.56
2023-02-24T04:08:40.871Z,89.03
2023-02-24T04:11:16.964Z,88.76
2023-02-24T04:13:50.803Z,88.68
2023-02-24T04:16:29.117Z,88.83
2023-02-24T04:19:03.800Z,88.89
2023-02-24T04:21:35.820Z,88.34
2023-02-24T04:24:11.627Z,88.74
2023-02-24T04:26:43.210Z,88.85
2023-02-24T04:29:20.557Z,89.00
2023-02-24T04:31:53.341Z,88.47
2023-02-24T04:34:22.201Z,88.09
2023-02-24T04:36:51.636Z,87.97
2023-02-24T04:39:23.519Z,87.68
2023-02-24T04:41:57.682Z,87.64
2023-02-24T04:44:28.193Z,88.43
2023-02-24T04:46:57.184Z,87.98
2023-02-24T04:49:26.125Z,87.93
2023-02-24T04:51:57.132Z,88.21
2023-02-24T04:54:28.154Z,88.21
2023-02-24T04:56:58.380Z,88.44
2023-02-24T04:59:29.293Z,96.75
2023-02-24T05:02:01.468Z,98.99
2023-02-24T05:04:31.828Z,89.43
2023-02-24T05:07:00.590Z,90.35
2023-02-24T05:09:30.396Z,87.04
2023-02-24T05:12:00.327Z,91.52
2023-02-24T05:14:31.097Z,85.43
2023-02-24T05:17:00.523Z,86.43
2023-02-24T05:19:46.647Z,85.29
2023-02-24T05:22:17.545Z,84.84
2023-02-24T05:24:48.238Z,85.07
2023-02-24T05:27:17.452Z,84.33
2023-02-24T05:29:46.150Z,85.57
2023-02-24T05:32:16.761Z,83.81
2023-02-24T05:34:45.349Z,85.22
2023-02-24T05:37:16.709Z,85.82
2023-02-24T05:39:46.569Z,85.82
2023-02-24T05:42:15.351Z,85.66
2023-02-24T05:44:43.717Z,86.30
2023-02-24T05:47:12.175Z,85.89
2023-02-24T05:49:40.966Z,85.87
2023-02-24T05:52:11.323Z,86.26
2023-02-24T05:54:44.051Z,86.59
2023-02-24T05:57:17.141Z,86.52
2023-02-24T05:59:45.589Z,87.02
2023-02-24T06:02:16.916Z,87.17
2023-02-24T06:04:51.168Z,86.98
2023-02-24T06:07:24.862Z,87.34
2023-02-24T06:09:56.590Z,87.30
2023-02-24T06:12:29.399Z,87.10
2023-02-24T06:14:58.898Z,87.48
2023-02-24T06:17:29.214Z,87.70
2023-02-24T06:19:57.894Z,87.61
2023-02-24T06:22:28.098Z,88.20
2023-02-24T06:24:57.340Z,88.59
2023-02-24T06:27:27.114Z,89.32
2023-02-24T06:29:56.906Z,89.96
2023-02-24T06:32:28.042Z,89.96
2023-02-24T06:34:59.395Z,89.92
2023-02-24T06:37:28.320Z,90.47
2023-02-24T06:39:58.367Z,90.95
2023-02-24T06:42:28.241Z,91.46
2023-02-24T06:44:56.647Z,91.55
2023-02-24T06:47:25.385Z,91.45
2023-02-24T06:49:53.806Z,91.12
2023-02-24T06:52:22.149Z,90.80
2023-02-24T06:54:52.454Z,90.57
2023-02-24T06:57:20.922Z,89.93
2023-02-24T06:59:50.961Z,90.40
2023-02-24T07:02:19.362Z,89.72
2023-02-24T07:04:48.149Z,90.36
2023-02-24T07:07:17.411Z,90.60
2023-02-24T07:09:46.086Z,90.27
2023-02-24T07:12:20.853Z,90.26
2023-02-24T07:14:50.925Z,88.56
2023-02-24T07:17:20.042Z,86.47
2023-02-24T07:19:48.470Z,86.08
2023-02-24T07:22:17.600Z,86.52
2023-02-24T07:24:46.722Z,86.16
2023-02-24T07:27:23.190Z,86.60
2023-02-24T07:29:53.890Z,86.32
2023-02-24T07:32:23.414Z,86.17
2023-02-24T07:34:52.014Z,85.50
2023-02-24T07:37:21.102Z,85.01
2023-02-24T07:39:49.663Z,83.90
2023-02-24T07:42:18.006Z,84.10
2023-02-24T07:44:49.204Z,83.42
2023-02-24T07:47:21.445Z,84.13
2023-02-24T07:49:51.197Z,82.72
2023-02-24T07:52:19.543Z,81.86
2023-02-24T07:54:49.806Z,81.56
2023-02-24T07:57:18.994Z,80.79
2023-02-24T07:59:48.175Z,80.91
2023-02-24T08:02:18.642Z,80.69
2023-02-24T08:04:51.532Z,79.76
2023-02-24T08:07:24.986Z,79.40
2023-02-24T08:10:24.267Z,80.17
2023-02-24T08:12:55.902Z,80.10
2023-02-24T08:15:26.800Z,78.11
2023-02-24T08:18:00.551Z,79.06
2023-02-24T08:20:36.243Z,79.51
2023-02-24T08:23:08.641Z,79.01
2023-02-24T08:25:37.117Z,79.50
2023-02-24T08:28:11.708Z,79.10
2023-02-24T08:30:46.103Z,78.98
2023-02-24T08:33:22.068Z,78.82
2023-02-24T08:36:01.088Z,79.65
2023-02-24T08:38:42.002Z,77.33
2023-02-24T08:41:17.983Z,78.74
2023-02-24T08:43:48.118Z,77.24
2023-02-24T08:46:21.150Z,77.34
2023-02-24T08:49:01.337Z,77.58
2023-02-24T08:51:35.092Z,78.17
2023-02-24T08:54:10.952Z,77.71
2023-02-24T08:56:43.832Z,77.98
2023-02-24T08:59:29.209Z,78.03
2023-02-24T09:02:18.555Z,76.84
2023-02-24T09:04:51.427Z,76.85
2023-02-24T09:07:22.679Z,77.25
2023-02-24T09:09:56.268Z,76.64
2023-02-24T09:12:29.190Z,75.42
2023-02-24T09:15:01.223Z,75.18
2023-02-24T09:17:41.202Z,75.38
2023-02-24T09:20:32.874Z,74.03
2023-02-24T09:23:03.695Z,72.94
2023-02-24T09:25:44.783Z,72.32
2023-02-24T09:28:18.170Z,71.36
2023-02-24T09:30:53.508Z,71.48
2023-02-24T09:33:29.233Z,70.83
2023-02-24T09:36:10.620Z,70.24
2023-02-24T09:38:58.758Z,69.92
2023-02-24T09:41:34.586Z,69.38
2023-02-24T09:44:07.822Z,69.78
2023-02-24T09:46:53.985Z,69.19
2023-02-24T09:49:25.799Z,69.66
2023-02-24T09:52:00.646Z,69.04
2023-02-24T09:54:35.617Z,67.02
2023-02-24T09:57:16.791Z,67.93
2023-02-24T10:00:22.133Z,67.71
2023-02-24T10:03:00.247Z,68.36
2023-02-24T10:05:38.865Z,68.71
2023-02-24T10:08:17.869Z,68.40
2023-02-24T10:11:00.949Z,68.94
2023-02-24T10:13:33.306Z,68.22
2023-02-24T10:16:07.082Z,68.01
2023-02-24T10:18:44.703Z,66.11
2023-02-24T10:21:30.666Z,67.25
2023-02-24T10:24:15.468Z,66.21
2023-02-24T10:27:00.390Z,65.08
2023-02-24T10:29:47.962Z,64.74
2023-02-24T10:32:24.693Z,63.61
2023-02-24T10:34:54.011Z,62.26
2023-02-24T10:37:28.930Z,62.76
2023-02-24T10:40:09.773Z,60.31
2023-02-24T10:42:45.942Z,57.88
2023-02-24T10:45:23.682Z,59.40
2023-02-24T10:47:57.755Z,58.78
2023-02-24T10:50:32.611Z,58.91
2023-02-24T10:53:26.726Z,58.64
2023-02-24T10:56:15.380Z,58.56
2023-02-24T10:58:56.923Z,60.38
2023-02-24T11:01:43.815Z,59.28
2023-02-24T11:04:43.905Z,60.74
2023-02-24T11:07:24.744Z,59.01
2023-02-24T11:10:14.035Z,57.97
2023-02-24T11:13:10.396Z,57.41
2023-02-24T11:16:01.311Z,56.86
2023-02-24T11:18:31.760Z,56.28
2023-02-24T11:21:03.801Z,56.46
2023-02-24T11:23:43.170Z,56.00
2023-02-24T11:26:18.245Z,55.76
2023-02-24T11:29:01.087Z,56.29
2023-02-24T11:31:49.077Z,57.21
2023-02-24T11:34:27.640Z,56.29
2023-02-24T11:37:06.749Z,54.76
2023-02-24T11:39:53.163Z,56.29
2023-02-24T11:42:27.351Z,56.73
2023-02-24T11:45:03.882Z,57.34
2023-02-24T11:47:40.013Z,56.42
2023-02-24T11:50:29.184Z,56.14
2023-02-24T11:52:59.984Z,55.35
2023-02-24T11:55:38.870Z,54.56
2023-02-24T11:58:21.360Z,54.53
2023-02-24T12:00:58.235Z,55.06
2023-02-24T12:03:34.359Z,55.48
2023-02-24T12:06:16.486Z,54.38
2023-02-24T12:08:50.614Z,54.19
2023-02-24T12:11:32.963Z,54.45
2023-02-24T12:14:17.042Z,54.41
2023-02-24T12:16:55.620Z,54.09
2023-02-24T12:19:33.534Z,53.73
2023-02-24T12:22:09.947Z,54.70
2023-02-24T12:24:39.237Z,54.48
2023-02-24T12:27:21.972Z,54.49
2023-02-24T12:30:22.906Z,54.53
2023-02-24T12:33:08.546Z,55.46
2023-02-24T12:35:47.932Z,55.56
2023-02-24T12:38:35.561Z,54.87
2023-02-24T12:41:25.173Z,57.33
2023-02-24T12:44:00.180Z,57.26
2023-02-24T12:46:36.595Z,59.74
2023-02-24T12:49:48.178Z,59.47
2023-02-24T12:52:25.932Z,57.16
2023-02-24T12:55:06.575Z,57.21
2023-02-24T12:57:44.962Z,58.22
2023-02-24T13:00:27.468Z,58.11
2023-02-24T13:03:02.771Z,58.03
2023-02-24T13:05:41.061Z,56.58
2023-02-24T13:08:24.496Z,57.18
2023-02-24T13:11:05.390Z,58.25
2023-02-24T13:13:41.440Z,57.02
2023-02-24T13:16:13.475Z,58.22
2023-02-24T13:18:42.200Z,57.54
2023-02-24T13:21:23.352Z,57.00
2023-02-24T13:23:58.339Z,57.10
2023-02-24T13:26:29.172Z,58.58
2023-02-24T13:29:03.346Z,57.45
2023-02-24T13:31:44.734Z,57.72
2023-02-24T13:34:31.732Z,58.36
2023-02-24T13:37:02.677Z,58.18
2023-02-24T13:39:36.894Z,60.03
2023-02-24T13:42:18.239Z,59.42
2023-02-24T13:44:53.749Z,60.08
2023-02-24T13:47:47.627Z,59.67
2023-02-24T13:50:25.603Z,58.58
2023-02-24T13:53:33.338Z,59.70
2023-02-24T13:56:21.413Z,59.47
2023-02-24T13:59:21.383Z,59.47
2023-02-24T14:01:52.702Z,60.44
2023-02-24T14:04:27.306Z,59.75
2023-02-24T14:07:01.472Z,60.42
2023-02-24T14:09:36.209Z,61.11
2023-02-24T14:12:09.883Z,60.90
2023-02-24T14:14:38.487Z,61.02
2023-02-24T14:17:06.878Z,62.02
2023-02-24T14:19:35.218Z,61.56
2023-02-24T14:22:04.019Z,61.89
2023-02-24T14:24:33.877Z,62.96
2023-02-24T14:27:03.909Z,63.03
2023-02-24T14:29:43.866Z,63.50
2023-02-24T14:32:21.958Z,63.36
2023-02-24T14:34:51.247Z,63.30
2023-02-24T14:37:26.033Z,64.01
2023-02-24T14:39:58.347Z,64.21
2023-02-24T14:42:28.193Z,64.11
2023-02-24T14:44:59.912Z,64.35
2023-02-24T14:47:32.151Z,64.52
2023-02-24T14:50:02.687Z,64.40
2023-02-24T14:52:37.278Z,64.72
2023-02-24T14:55:13.624Z,64.98
2023-02-24T14:57:50.536Z,64.97
2023-02-24T15:00:24.307Z,65.58
2023-02-24T15:03:02.197Z,65.35
2023-02-24T15:05:30.625Z,66.27
2023-02-24T15:08:00.613Z,66.37
2023-02-24T15:10:32.504Z,65.66
2023-02-24T15:13:09.106Z,65.46
2023-02-24T15:15:39.628Z,66.30
2023-02-24T15:18:15.669Z,65.04
2023-02-24T15:20:44.284Z,65.99
2023-02-24T15:23:28.108Z,65.96
2023-02-24T15:25:57.849Z,65.92
2023-02-24T15:28:31.087Z,65.52
2023-02-24T15:31:08.520Z,64.99
2023-02-24T15:33:41.629Z,65.06
2023-02-24T15:36:19.569Z,64.80
2023-02-24T15:38:53.132Z,65.81
2023-02-24T15:41:23.373Z,65.52
2023-02-24T15:43:56.126Z,65.91
2023-02-24T15:46:30.500Z,65.60
2023-02-24T15:49:03.165Z,64.82
2023-02-24T15:51:38.648Z,65.19
2023-02-24T15:54:12.918Z,65.10
2023-02-24T15:56:43.947Z,63.99
2023-02-24T15:59:16.465Z,65.17
2023-02-24T16:01:45.051Z,64.97
2023-02-24T16:04:13.509Z,64.06
2023-02-24T16:06:54.442Z,63.90
2023-02-24T16:09:33.541Z,63.78
2023-02-24T16:12:06.816Z,64.09
2023-02-24T16:14:35.569Z,63.32
2023-02-24T16:17:09.063Z,62.87
2023-02-24T16:19:38.155Z,62.60
2023-02-24T16:22:06.493Z,61.41
2023-02-24T16:24:35.223Z,62.18
2023-02-24T16:27:06.205Z,62.54
2023-02-24T16:29:34.596Z,63.80
2023-02-24T16:32:03.285Z,64.56
2023-02-24T16:34:31.933Z,66.20
2023-02-24T16:37:00.386Z,68.63
2023-02-24T16:39:29.459Z,69.51
2023-02-24T16:41:59.367Z,70.34
2023-02-24T16:44:29.097Z,71.50
2023-02-24T16:46:57.477Z,72.69
2023-02-24T16:49:25.846Z,73.91
2023-02-24T16:51:54.212Z,75.13
2023-02-24T16:54:23.458Z,75.98
2023-02-24T16:56:52.181Z,76.25
2023-02-24T16:59:20.658Z,76.67
2023-02-24T17:01:50.778Z,77.96
2023-02-24T17:04:19.349Z,78.82
2023-02-24T17:06:48.165Z,78.50
2023-02-24T17:09:18.020Z,79.71
2023-02-24T17:11:46.786Z,79.16
2023-02-24T17:14:18.753Z,80.13
2023-02-24T17:16:49.074Z,80.51
2023-02-24T17:19:17.790Z,80.80
2023-02-24T17:21:46.671Z,81.63
2023-02-24T17:24:18.211Z,80.80
2023-02-24T17:26:47.352Z,80.64
2023-02-24T17:29:17.762Z,81.02
2023-02-24T17:31:46.588Z,79.99
2023-02-24T17:34:16.502Z,81.15
2023-02-24T17:36:44.803Z,81.66
2023-02-24T17:39:14.051Z,81.04
2023-02-24T17:41:42.468Z,81.42
2023-02-24T17:44:10.925Z,81.52
2023-02-24T17:46:39.404Z,81.39
2023-02-24T17:49:07.948Z,80.91
2023-02-24T17:51:37.725Z,81.28
2023-02-24T17:54:06.849Z,81.62
2023-02-24T17:56:35.361Z,82.01
2023-02-24T17:59:03.740Z,81.92
2023-02-24T18:01:32.093Z,82.03
2023-02-24T18:04:00.461Z,81.93
2023-02-24T18:06:28.926Z,81.82
2023-02-24T18:08:58.666Z,82.56
2023-02-24T18:11:27.043Z,82.93
2023-02-24T18:14:00.373Z,83.63
2023-02-24T18:16:32.212Z,83.08
2023-02-24T18:19:00.638Z,82.28
2023-02-24T18:21:29.006Z,81.78
2023-02-24T18:23:58.840Z,82.95
2023-02-24T18:26:27.354Z,82.48
2023-02-24T18:28:56.611Z,82.62
2023-02-24T18:31:27.725Z,84.00
2023-02-24T18:33:58.061Z,83.39
2023-02-24T18:36:27.485Z,83.54
2023-02-24T18:38:59.180Z,82.84
2023-02-24T18:41:27.965Z,82.59
2023-02-24T18:43:59.274Z,82.07
2023-02-24T18:46:28.722Z,83.68
2023-02-24T18:48:57.690Z,83.38
2023-02-24T18:51:29.979Z,83.97
2023-02-24T18:54:01.560Z,82.58
2023-02-24T18:56:32.365Z,83.34
2023-02-24T18:59:02.360Z,82.81
2023-02-24T19:01:34.375Z,83.65
2023-02-24T19:04:04.535Z,84.65
2023-02-24T19:06:33.994Z,83.65
2023-02-24T19:09:07.308Z,83.81
2023-02-24T19:11:36.196Z,82.66
2023-02-24T19:14:05.345Z,82.43
2023-02-24T19:16:34.109Z,82.92
2023-02-24T19:19:02.995Z,83.73
2023-02-24T19:21:33.265Z,83.89
2023-02-24T19:24:03.917Z,82.66
2023-02-24T19:26:32.391Z,83.65
2023-02-24T19:29:01.076Z,83.43
2023-02-24T19:31:32.614Z,84.61
2023-02-24T19:34:03.918Z,84.00
2023-02-24T19:36:35.277Z,83.51
2023-02-24T19:39:06.182Z,82.53
2023-02-24T19:41:34.551Z,82.47
2023-02-24T19:44:03.072Z,83.47
2023-02-24T19:46:34.064Z,82.52
2023-02-24T19:49:03.184Z,83.28
2023-02-24T19:51:32.137Z,82.68
2023-02-24T19:54:06.007Z,82.78
2023-02-24T19:56:36.955Z,82.77
2023-02-24T19:59:08.512Z,83.51
2023-02-24T20:01:36.963Z,81.91
2023-02-24T20:04:06.007Z,81.59
2023-02-24T20:06:37.111Z,80.41
2023-02-24T20:09:09.754Z,81.91
2023-02-24T20:11:39.522Z,81.23
2023-02-24T20:14:08.912Z,81.65
2023-02-24T20:16:39.106Z,82.55
2023-02-24T20:19:12.515Z,82.24
2023-02-24T20:21:41.836Z,82.64
2023-02-24T20:24:15.114Z,82.26
2023-02-24T20:26:47.050Z,81.63
2023-02-24T20:29:24.143Z,81.75
2023-02-24T20:31:53.179Z,81.58
2023-02-24T20:34:24.390Z,80.76
2023-02-24T20:36:52.979Z,80.94
2023-02-24T20:39:26.873Z,81.13
2023-02-24T20:41:55.356Z,79.59
2023-02-24T20:44:24.606Z,80.17
2023-02-24T20:46:55.270Z,81.32
2023-02-24T20:49:24.161Z,79.48
2023-02-24T20:51:52.590Z,78.85
2023-02-24T20:54:23.942Z,79.15
2023-02-24T20:56:52.386Z,79.98
2023-02-24T20:59:24.173Z,79.76
2023-02-24T21:01:52.944Z,79.76
2023-02-24T21:04:22.779Z,80.12
2023-02-24T21:06:52.138Z,80.10
2023-02-24T21:09:21.981Z,79.96
2023-02-24T21:11:50.452Z,79.83
2023-02-24T21:14:19.642Z,80.38
2023-02-24T21:16:48.018Z,79.57
2023-02-24T21:19:17.888Z,79.78
2023-02-24T21:21:46.461Z,81.04
2023-02-24T21:24:14.879Z,81.44
2023-02-24T21:26:44.744Z,80.69
2023-02-24T21:29:13.310Z,81.78
2023-02-24T21:31:41.888Z,80.77
2023-02-24T21:34:12.128Z,81.23
2023-02-24T21:36:40.514Z,80.89
2023-02-24T21:39:08.940Z,81.72
2023-02-24T21:41:37.378Z,81.54
2023-02-24T21:44:07.237Z,81.92
2023-02-24T21:46:36.116Z,82.61
2023-02-24T21:49:04.828Z,82.38
2023-02-24T21:51:33.521Z,82.74
2023-02-24T21:54:02.005Z,81.81
2023-02-24T21:56:31.525Z,82.16
2023-02-24T21:59:02.552Z,82.65
2023-02-24T22:01:35.237Z,82.29
2023-02-24T22:04:05.899Z,81.34
2023-02-24T22:06:37.199Z,82.00
2023-02-24T22:09:08.690Z,83.55
2023-02-24T22:11:41.741Z,84.69
2023-02-24T22:14:11.791Z,84.66
2023-02-24T22:16:42.148Z,84.20
2023-02-24T22:19:11.045Z,84.30
2023-02-24T22:21:42.295Z,83.47
2023-02-24T22:24:14.987Z,83.67
2023-02-24T22:26:44.326Z,84.35
2023-02-24T22:29:13.193Z,84.47
2023-02-24T22:31:44.060Z,83.28
2023-02-24T22:34:14.172Z,82.77
2023-02-24T22:36:42.758Z,82.53
2023-02-24T22:39:12.764Z,83.11
2023-02-24T22:41:41.130Z,82.51
2023-02-24T22:44:11.053Z,82.35
2023-02-24T22:46:40.218Z,80.96
2023-02-24T22:49:09.964Z,80.62
2023-02-24T22:51:38.519Z,79.34
2023-02-24T22:54:07.637Z,79.12
2023-02-24T22:56:37.944Z,79.66
2023-02-24T22:59:06.604Z,78.43
2023-02-24T23:01:37.719Z,79.45
2023-02-24T23:04:12.852Z,78.29
2023-02-24T23:06:41.723Z,78.68
2023-02-24T23:09:10.771Z,77.64
2023-02-24T23:11:41.974Z,76.40
2023-02-24T23:14:13.947Z,77.10
2023-02-24T23:16:46.534Z,77.71
2023-02-24T23:19:18.530Z,78.41
2023-02-24T23:21:49.751Z,79.65
2023-02-24T23:24:19.614Z,78.79
2023-02-24T23:26:53.827Z,80.69
2023-02-24T23:29:24.162Z,80.85
2023-02-24T23:31:53.435Z,81.09
2023-02-24T23:34:23.336Z,80.68
2023-02-24T23:36:51.757Z,80.84
2023-02-24T23:39:23.908Z,81.09
2023-02-24T23:41:57.545Z,80.16
2023-02-24T23:44:26.466Z,80.33
2023-02-24T23:46:55.022Z,79.29
2023-02-24T23:49:29.407Z,78.93
2023-02-24T23:52:04.763Z,77.90
2023-02-24T23:54:33.240Z,77.81
2023-02-24T23:57:01.748Z,76.89
2023-02-24T23:59:30.223Z,76.58
